• Join FlightAware (Why Join?)
  • Login
  • US Flag 
09:14PM EDT


 

Airport Tracker/Info


-or-


 

Live Flight TrackerFlight Track Log ✈ DAL2029 ✈ 12-May-2013 ✈ KMSP - KSLC

Flight Track Log - Related Links

Times and Time Zones

All times are in EDT time to prevent confusion due to time zone crossing. See the DAL2029 flight status page for this flight to view local times or setup timezone preferences in your user account.

Time Position Orientation Groundspeed Altitude Reporting Facility
EDT Latitude Longitude Course Direction KTS MPH feet Rate Location/Type
03:48PM 44.8833 -93.3000 235° Southwest 203 234 3,600  Level Minneapolis TRACON
03:49PM 44.8572 -93.3753 244° Southwest 259 298 6,300 3,000 Climbing Minneapolis Center
03:50PM 44.6085 -93.7780 237° Southwest  Level FlightAware Approximate
03:50PM 44.8000 -93.4758 231° Southwest 285 328 10,000  Level Minneapolis Center
03:51PM 44.5301 -93.9110 230° Southwest  Level FlightAware Approximate
03:51PM 44.7439 -93.5728 231° Southwest 335 386 11,700  Level Minneapolis Center
03:52PM 44.4575 -94.0518 235° Southwest  Level FlightAware Approximate
03:52PM 44.6781 -93.6836 230° Southwest 373 429 14,000  Level Minneapolis Center
03:53PM 44.3863 -94.1941 235° Southwest  Level FlightAware Approximate
03:53PM 44.6092 -93.8011 231° Southwest 391 450 16,700  Level Minneapolis Center
03:54PM 44.5400 -93.9244 232° Southwest 404 465 18,800 2,220 Climbing Minneapolis Center
03:55PM 44.4575 -94.0844 234° Southwest 421 484 21,300 2,100 Climbing Minneapolis Center
03:56PM 44.3856 -94.2208 234° Southwest 436 502 23,200 1,740 Climbing Minneapolis Center
03:57PM 44.3106 -94.3619 233° Southwest 450 518 24,900 1,380 Climbing Minneapolis Center
03:58PM 44.2322 -94.5089 233° Southwest 469 540 26,100 1,200 Climbing Minneapolis Center
03:59PM 44.1533 -94.6567 233° Southwest 488 562 27,400 1,140 Climbing Minneapolis Center
04:00PM 44.0508 -94.8458 233° Southwest 507 583 28,700 1,500 Climbing Minneapolis Center
04:01PM 43.9458 -95.0394 233° Southwest 518 596 30,800 1,620 Climbing Minneapolis Center
04:02PM 43.8589 -95.1986 233° Southwest 518 596 32,100 1,140 Climbing Minneapolis Center
04:03PM 43.7711 -95.3592 233° Southwest 521 600 33,200 1,080 Climbing Minneapolis Center
04:04PM 43.6808 -95.5219 233° Southwest 526 605 34,400 1,140 Climbing Minneapolis Center
04:05PM 43.6061 -95.6933 239° Southwest 521 600 35,600 720 Climbing Minneapolis Center
04:06PM 43.5436 -95.8689 244° Southwest 509 586 36,000 120 Climbing Minneapolis Center
04:08PM 43.4681 -96.0775 244° Southwest 505 581 36,000  Level Minneapolis Center
04:09PM 43.3917 -96.2858 243° Southwest 506 582 36,000  Level Minneapolis Center
04:10PM 43.3283 -96.4592 243° Southwest 507 583 36,000  Level Minneapolis Center
04:11PM 43.2636 -96.6317 243° Southwest 507 583 36,000  Level Minneapolis Center
04:12PM 43.1989 -96.8056 243° Southwest 509 586 36,000  Level Minneapolis Center
04:13PM 43.1347 -96.9756 243° Southwest 506 582 36,000  Level Minneapolis Center
04:14PM 43.0703 -97.1472 243° Southwest 506 582 36,000  Level Minneapolis Center
04:15PM 43.0053 -97.3172 242° Southwest 507 583 36,000  Level Minneapolis Center
04:16PM 42.9264 -97.5214 242° Southwest 507 583 36,000  Level Minneapolis Center
04:17PM 42.8625 -97.6922 243° Southwest 507 583 36,000  Level Minneapolis Center
04:18PM 42.7964 -97.8622 242° Southwest 508 585 36,000  Level Minneapolis Center
04:19PM 42.7281 -98.0283 241° Southwest 506 582 36,000  Level Minneapolis Center
04:20PM 42.6636 -98.1981 243° Southwest 506 582 36,000  Level Minneapolis Center
04:21PM 42.6078 -98.3411 242° Southwest 510 587 36,000  Level Minneapolis Center
04:22PM 42.5283 -98.5419 242° Southwest 507 583 36,000  Level Minneapolis Center
04:23PM 42.4633 -98.7103 242° Southwest 506 582 36,000  Level Minneapolis Center
04:24PM 42.4008 -98.9186 248° West 500 575 36,000  Level Minneapolis Center
04:25PM 42.3497 -99.0922 248° West 499 574 36,000  Level Minneapolis Center
04:26PM 42.2994 -99.2639 248° West 496 571 36,000  Level Minneapolis Center
04:27PM 42.2569 -99.4011 247° West 496 571 36,000  Level Minneapolis Center
04:28PM 42.2383 -99.4725 251° West 496 571 36,000  Level Denver Center
04:29PM 42.2211 -99.6819 264° West 468 539 36,000  Level Denver Center
04:30PM 42.2164 -99.8472 268° West 465 535 36,000  Level Denver Center
04:31PM 42.2128 -99.9867 268° West 467 537 36,000  Level Denver Center
04:32PM 42.2072 -100.2064 268° West 462 532 36,000  Level Denver Center
04:33PM 42.2022 -100.3731 268° West 463 533 36,000  Level Denver Center
04:34PM 42.1964 -100.5647 268° West 462 532 36,000  Level Denver Center
04:35PM 42.1906 -100.7300 267° West 462 532 36,000  Level Denver Center
04:36PM 42.1836 -100.9222 267° West 462 532 36,000  Level Denver Center
04:37PM 42.1786 -101.0861 268° West 461 531 36,000  Level Denver Center
04:38PM 42.1711 -101.2789 267° West 462 532 36,000  Level Denver Center
04:39PM 42.1639 -101.4419 267° West 459 528 36,000  Level Denver Center
04:40PM 42.1553 -101.6617 267° West 461 531 36,000  Level Denver Center
04:41PM 42.1483 -101.8253 267° West 459 528 36,000  Level Denver Center
04:42PM 42.1394 -102.0444 267° West 461 531 36,000  Level Denver Center
04:43PM 42.1319 -102.2078 267° West 459 528 36,000  Level Denver Center
04:44PM 42.1217 -102.3978 266° West 459 528 36,000  Level Denver Center
04:45PM 42.1144 -102.5633 267° West 463 533 36,000  Level Denver Center
04:46PM 42.1044 -102.7542 266° West 460 529 36,000  Level Denver Center
04:47PM 42.0958 -102.9192 266° West 461 531 36,000  Level Denver Center
04:48PM 42.0856 -103.1117 266° West 462 532 36,000  Level Denver Center
04:50PM 42.0775 -103.2492 266° West 462 532 36,000  Level Denver Center
04:51PM 42.0658 -103.4417 265° West 461 531 36,000  Level Denver Center
04:52PM 42.0539 -103.6353 265° West 463 533 36,000  Level Denver Center
04:53PM 42.0433 -103.8011 265° West 464 534 36,000  Level Denver Center
04:54PM 42.0300 -103.9931 265° West 461 531 36,000  Level Denver Center
04:55PM 42.0194 -104.1569 265° West 460 529 36,000  Level Denver Center
04:56PM 42.0086 -104.3219 265° West 461 531 36,000  Level Denver Center
04:57PM 41.9953 -104.5139 265° West 461 531 36,000  Level Denver Center
04:58PM 41.9836 -104.6778 265° West 460 529 36,000  Level Denver Center
04:59PM 41.9700 -104.8681 265° West 457 526 36,000  Level Denver Center
05:00PM 41.9572 -105.0328 264° West 460 529 36,000  Level Denver Center
05:01PM 41.9458 -105.1972 265° West 461 531 36,000  Level Denver Center
05:02PM 41.9317 -105.3903 264° West 463 533 36,000  Level Denver Center
05:03PM 41.9358 -105.5550 272° West 460 529 36,000  Level Denver Center
05:04PM 41.9342 -105.7472 269° West 461 531 36,000  Level Denver Center
05:05PM 41.9333 -105.9128 270° West 462 532 36,000  Level Denver Center
05:06PM 41.9333 -106.1050 270° West 461 531 36,000  Level Denver Center
05:07PM 41.9344 -106.2706 271° West 463 533 36,000  Level Denver Center
05:08PM 41.9331 -106.4353 269° West 461 531 36,000  Level Denver Center
05:09PM 41.9347 -106.6361 271° West 462 532 36,000  Level Denver Center
05:10PM 41.9339 -106.8000 270° West 460 529 36,000  Level Denver Center
05:11PM 41.9336 -106.9656 270° West 462 532 36,000  Level Denver Center
05:12PM 41.9311 -107.1575 269° West 461 531 36,000  Level Denver Center
05:13PM 41.9297 -107.3222 269° West 462 532 36,000  Level Denver Center
05:14PM 41.9292 -107.5158 270° West 464 534 36,000  Level Denver Center
05:15PM 41.9258 -107.6803 268° West 462 532 36,000  Level Denver Center
05:16PM 41.9233 -107.8450 269° West 460 529 36,000  Level Salt Lake Center
05:17PM 41.9217 -108.0358 269° West 460 529 36,000  Level Salt Lake Center
05:18PM 41.9194 -108.2017 269° West 464 534 36,000  Level Salt Lake Center
05:19PM 41.9158 -108.3911 269° West 459 528 36,000  Level Salt Lake Center
05:20PM 41.9136 -108.5539 269° West 457 526 36,000  Level Salt Lake Center
05:21PM 41.9092 -108.7444 268° West 460 529 36,000  Level Salt Lake Center
05:22PM 41.9061 -108.9064 269° West 457 526 36,000  Level Salt Lake Center
05:23PM 41.9017 -109.0692 268° West 458 527 36,000  Level Salt Lake Center
05:24PM 41.8975 -109.2583 268° West 458 527 36,000  Level Salt Lake Center
05:25PM 41.8925 -109.4200 268° West 457 526 36,000  Level Salt Lake Center
05:26PM 41.8875 -109.6083 268° West 455 524 36,000  Level Salt Lake Center
05:27PM 41.8817 -109.7708 267° West 457 526 36,000  Level Salt Lake Center
05:29PM 41.8758 -109.9589 268° West 454 522 36,000  Level Salt Lake Center
05:30PM 41.8711 -110.1206 268° West 455 524 36,000  Level Salt Lake Center
05:31PM 41.8644 -110.3083 267° West 454 522 36,000 -1,020 Level Salt Lake Center
05:32PM 41.8589 -110.4722 267° West 459 528 34,000 -2,700 Descending Salt Lake Center
05:33PM 41.8514 -110.6661 267° West 466 536 30,500 -1,980 Descending Salt Lake Center
05:34PM 41.8453 -110.8331 267° West 468 539 30,000 -300 Descending Salt Lake Center
05:35PM 41.8375 -111.0069 267° West 465 535 30,000  Level Salt Lake Center
05:36PM 41.8306 -111.1825 267° West 472 543 30,000  Level Salt Lake Center
05:37PM 41.8233 -111.3581 267° West 475 547 30,000 -480 Level Salt Lake Center
05:38PM 41.8153 -111.5333 267° West 475 547 29,100 -2,040 Descending Salt Lake Center
05:39PM 41.8044 -111.7392 266° West 467 537 25,900 -3,060 Descending Salt Lake Center
05:40PM 41.7947 -111.9083 266° West 462 532 22,900 -2,760 Descending Salt Lake Center
05:41PM 41.7106 -112.0203 225° Southwest 451 519 20,200 -1,860 Descending Salt Lake Center
05:42PM 41.5947 -112.0417 188° South 420 483 19,200 -780 Descending Salt Lake Center
05:42PM 41.5278 -112.0464 183° South 380 437 19,000 -240 Descending Salt Lake Center
05:43PM 41.4919 -112.0572 193° South 374 430 19,000 -780 Level Salt Lake Center
05:43PM 41.4289 -112.0689 188° South 395 455 18,300 -1,200 Descending Salt Lake Center
05:44PM 41.3831 -112.0800 190° South 397 457 17,800 -1,080 Descending Salt Lake Center
05:45PM 41.3053 -112.0967 189° South 362 417 17,000 -1,500 Descending Salt Lake Center
05:45PM 41.2689 -112.1044 189° South 343 395 16,300 -1,980 Descending Salt Lake Center
05:45PM 41.2350 -112.1122 190° South 335 386 15,400 -1,860 Descending Salt Lake Center
05:46PM 41.1800 -112.1228 188° South 329 379 14,400 -1,380 Descending Salt Lake Center
05:46PM 41.1400 -112.1331 191° South 325 374 14,000 -300 Descending Salt Lake Center
05:47PM 41.0931 -112.1431 189° South 324 373 14,100 60 Climbing Salt Lake Center
05:47PM 41.0492 -112.1411 178° South 328 377 14,100 -120 Level Salt Lake Center
05:48PM 41.0044 -112.1317 171° South 321 369 14,000 -120 Descending Salt Lake Center
05:48PM 40.9617 -112.1225 171° South 319 367 14,000 -600 Level Salt Lake Center
05:49PM 40.9244 -112.1142 170° South 285 328 13,400 -1,500 Descending Salt Lake Center
05:50PM 40.8706 -112.1078 175° South 271 312 12,200 -1,500 Descending Salt Lake Center
05:50PM 40.8511 -112.1033 170° South 268 308 11,900 -1,140 Descending Salt Lake Center
05:51PM 40.8003 -112.1006 178° South 259 298 11,100 -900 Descending Salt Lake Center
05:51PM 40.7664 -112.0933 171° South 257 296 11,000 -900 Descending Salt Lake Center
05:52PM 40.7294 -112.0906 177° South 255 293 10,200 -1,620 Descending Salt Lake Center
05:52PM 40.6972 -112.0847 172° South 251 289 9,400 -1,320 Descending Salt Lake Center
05:53PM 40.6636 -112.0844 180° South 251 289 9,000 -420 Descending Salt Lake Center
05:53PM 40.6311 -112.0764 169° South 236 272 9,000 60 Level Salt Lake Center
05:54PM 40.6022 -112.0683 168° South 222 255 9,100 -600 Climbing Salt Lake Center
05:54PM 40.6000 -112.0294 94° East 211 243 8,400 -1,260 Descending Salt Lake Center